Time;durP1;ratioP1;P1;durP2;ratioP2;P2;SDS_P1;SDS_P2;PMS_P1;PMS_P2;Temp;Humidity;BMP_temperature;BMP_pressure;BME280_temperature;BME280_humidity;BME280_pressure;Samples;Min_cycle;Max_cycle;Signal;HPM_P1;HPM_P2
2022/01/16 00:04:29;;;;;;;1.45;1.20;;;-0.90;99.90;;;;;;5036401;28;20028;-76
2022/01/16 00:06:55;;;;;;;11.57;3.90;;;-0.80;99.90;;;;;;5054163;28;20025;-76
2022/01/16 00:09:21;;;;;;;0.68;0.68;;;-0.90;99.90;;;;;;5054063;28;20021;-76
2022/01/16 00:11:47;;;;;;;0.90;0.90;;;-1.20;99.90;;;;;;5053871;28;20537;-76
2022/01/16 00:14:12;;;;;;;1.25;1.25;;;-1.30;99.90;;;;;;5053982;28;20028;-76
2022/01/16 00:16:40;;;;;;;1.55;1.52;;;-1.20;99.90;;;;;;5035694;28;20060;-76
2022/01/16 00:19:06;;;;;;;1.23;1.23;;;-1.30;99.90;;;;;;5019408;28;20028;-76
2022/01/16 00:21:40;;;;;;;2.80;2.58;;;-1.30;99.90;;;;;;5053710;28;20079;-76
2022/01/16 00:24:07;;;;;;;0.63;0.63;;;-1.30;99.90;;;;;;5019696;28;20017;-75
2022/01/16 00:26:33;;;;;;;0.50;0.50;;;-1.30;99.90;;;;;;5035503;28;20481;-75
2022/01/16 00:28:59;;;;;;;3.75;1.27;;;-1.10;99.90;;;;;;5053724;28;20025;-76
2022/01/16 00:31:25;;;;;;;1.23;1.23;;;-1.10;99.90;;;;;;5019016;28;20025;-75
2022/01/16 00:33:52;;;;;;;6.85;3.15;;;-1.10;99.90;;;;;;5018709;28;20450;-76
2022/01/16 00:36:19;;;;;;;0.32;0.32;;;-1.10;99.90;;;;;;5035198;28;20013;-76
2022/01/16 00:38:50;;;;;;;1.38;1.38;;;-0.90;99.90;;;;;;5053163;28;20063;-75
2022/01/16 00:41:18;;;;;;;2.42;1.75;;;-1.00;99.90;;;;;;5035673;28;20498;-76
2022/01/16 00:43:44;;;;;;;25.77;3.17;;;-0.80;99.90;;;;;;5053072;28;20025;-75
2022/01/16 00:46:10;;;;;;;1.10;1.00;;;-1.00;99.90;;;;;;5019032;28;20400;-75
2022/01/16 00:48:36;;;;;;;1.85;1.30;;;-1.20;99.90;;;;;;5053426;28;20021;-75
2022/01/16 00:51:02;;;;;;;1.15;1.15;;;-1.10;99.90;;;;;;5053439;28;20028;-76
2022/01/16 00:53:28;;;;;;;1.88;0.82;;;-1.30;99.90;;;;;;5053250;28;20025;-77
2022/01/16 00:55:53;;;;;;;0.73;0.73;;;-1.20;99.90;;;;;;5053102;28;20021;-76
2022/01/16 00:58:19;;;;;;;1.23;1.20;;;-1.20;99.90;;;;;;5052949;28;20491;-76
2022/01/16 01:00:47;;;;;;;0.95;0.93;;;-1.20;99.90;;;;;;5035460;28;20047;-76
2022/01/16 01:03:14;;;;;;;0.75;0.75;;;-1.10;99.90;;;;;;5053188;28;20025;-76
2022/01/16 01:05:40;;;;;;;0.80;0.80;;;-1.00;99.90;;;;;;5053007;28;20541;-76
2022/01/16 01:08:07;;;;;;;0.68;0.68;;;-1.20;99.90;;;;;;5035401;28;20025;-76
2022/01/16 01:10:37;;;;;;;0.40;0.40;;;-1.20;99.90;;;;;;5052790;28;20063;-76
2022/01/16 01:13:21;;;;;;;3.33;1.85;;;-1.30;99.90;;;;;;5052954;28;20028;-76
2022/01/16 01:15:51;;;;;;;3.15;2.92;;;-1.30;99.90;;;;;;5034677;28;20528;-76
2022/01/16 01:18:20;;;;;;;2.17;2.05;;;-1.10;99.90;;;;;;5035184;28;20060;-76
2022/01/16 01:20:49;;;;;;;0.68;0.68;;;-1.20;99.90;;;;;;5052936;28;20468;-76
2022/01/16 01:23:15;;;;;;;0.40;0.40;;;-1.30;99.90;;;;;;5034740;28;20104;-76
2022/01/16 01:25:42;;;;;;;0.65;0.65;;;-1.20;99.90;;;;;;5034437;28;20524;-76
2022/01/16 01:28:09;;;;;;;1.65;1.55;;;-1.20;99.90;;;;;;5053065;28;20021;-76
2022/01/16 01:30:35;;;;;;;1.38;1.33;;;-1.30;99.90;;;;;;5052575;28;20025;-75
2022/01/16 01:33:01;;;;;;;1.48;1.40;;;-1.40;99.90;;;;;;5033920;28;20048;-76
2022/01/16 01:35:28;;;;;;;0.82;0.82;;;-1.50;99.90;;;;;;5034006;28;20033;-77
2022/01/16 01:37:54;;;;;;;13.48;2.67;;;-1.60;99.90;;;;;;5053676;28;20033;-75
2022/01/16 01:40:25;;;;;;;3.97;3.60;;;-1.50;99.90;;;;;;5038067;28;20032;-76
2022/01/16 01:51:12;;;;;;;0.93;0.80;;;-1.50;99.90;;;;;;5038195;28;20533;-72
2022/01/16 01:53:40;;;;;;;0.50;0.50;;;-1.70;99.90;;;;;;5055816;28;20071;-76
2022/01/16 01:56:08;;;;;;;1.38;1.25;;;-1.70;99.90;;;;;;5037944;28;20025;-75
2022/01/16 01:58:33;;;;;;;0.95;0.95;;;-1.60;99.90;;;;;;5055820;28;20021;-75
2022/01/16 02:01:00;;;;;;;0.95;0.95;;;-1.80;99.90;;;;;;5037824;28;20025;-75
2022/01/16 02:05:51;;;;;;;1.35;1.35;;;-2.00;99.90;;;;;;5055538;28;20048;-76
2022/01/16 02:08:17;;;;;;;3.28;2.85;;;-2.10;99.90;;;;;;5055621;28;20036;-75
2022/01/16 02:10:43;;;;;;;2.45;2.35;;;-2.00;99.90;;;;;;5037744;28;20036;-76
2022/01/16 02:13:19;;;;;;;0.50;0.50;;;-2.00;99.90;;;;;;5055505;28;20025;-76
2022/01/16 02:34:35;;;;;;;3.53;3.33;;;-2.10;99.90;;;;;;5055444;28;20013;-75
2022/01/16 02:37:06;;;;;;;0.50;0.50;;;-1.90;99.90;;;;;;5054763;28;20033;-76
2022/01/16 02:39:36;;;;;;;1.33;1.33;;;-1.80;99.90;;;;;;5037441;28;20092;-75
2022/01/16 02:42:07;;;;;;;0.50;0.50;;;-1.80;99.90;;;;;;5055437;28;20278;-77
2022/01/16 02:47:13;;;;;;;1.10;1.02;;;-1.80;99.90;;;;;;5036995;28;20049;-76
2022/01/16 02:49:41;;;;;;;3.47;3.25;;;-1.80;99.90;;;;;;5019308;28;20108;-76
2022/01/16 02:52:12;;;;;;;0.70;0.70;;;-1.60;99.90;;;;;;5037027;28;20052;-77
2022/01/16 02:54:40;;;;;;;0.57;0.57;;;-1.70;99.90;;;;;;5054933;28;20086;-76
2022/01/16 02:57:12;;;;;;;1.17;1.17;;;-1.80;99.90;;;;;;5037012;28;20033;-77
2022/01/16 02:59:39;;;;;;;0.50;0.50;;;-1.90;99.90;;;;;;5055132;28;20028;-76
2022/01/16 03:02:05;;;;;;;0.73;0.73;;;-1.90;99.90;;;;;;5054505;28;20029;-76
2022/01/16 03:04:32;;;;;;;0.60;0.60;;;-2.00;99.90;;;;;;5055190;28;20021;-76
2022/01/16 03:07:02;;;;;;;0.60;0.60;;;-2.10;99.90;;;;;;5019978;28;20078;-76
2022/01/16 03:09:39;;;;;;;4.20;1.73;;;-2.10;99.90;;;;;;5036864;28;20056;-76
2022/01/16 03:12:07;;;;;;;0.85;0.85;;;-2.30;99.90;;;;;;5036504;28;20048;-76
2022/01/16 03:14:34;;;;;;;1.40;1.40;;;-2.40;99.90;;;;;;5036502;28;20052;-76
2022/01/16 03:17:00;;;;;;;1.48;1.38;;;-2.60;99.90;;;;;;5036171;28;20503;-76
2022/01/16 03:22:10;;;;;;;0.82;0.82;;;-2.60;99.90;;;;;;5054896;28;20104;-76
2022/01/16 03:24:43;;;;;;;1.50;1.40;;;-2.50;99.90;;;;;;5054338;28;20116;-76
2022/01/16 03:27:20;;;;;;;1.55;1.33;;;-2.40;99.90;;;;;;5054121;28;20043;-76
2022/01/16 03:29:51;;;;;;;0.40;0.40;;;-2.20;99.90;;;;;;5036918;28;20029;-77
2022/01/16 03:32:19;;;;;;;3.55;2.83;;;-2.20;99.90;;;;;;5036148;28;20024;-77
2022/01/16 03:34:45;;;;;;;1.90;1.77;;;-1.90;99.90;;;;;;5054242;28;20052;-76
2022/01/16 03:37:11;;;;;;;3.70;3.40;;;-1.90;99.90;;;;;;5036060;28;20037;-76
2022/01/16 03:39:38;;;;;;;6.72;6.20;;;-1.80;99.90;;;;;;5036520;28;20017;-76
2022/01/16 03:42:04;;;;;;;0.40;0.40;;;-1.70;99.90;;;;;;5053806;28;20029;-77
2022/01/16 03:44:30;;;;;;;0.60;0.60;;;-1.60;99.90;;;;;;5053953;28;20109;-77
2022/01/16 03:46:55;;;;;;;0.50;0.50;;;-1.40;99.90;;;;;;5053661;28;20044;-76
2022/01/16 03:49:28;;;;;;;2.83;1.42;;;-1.30;99.90;;;;;;5054021;28;20032;-77
2022/01/16 03:51:55;;;;;;;0.55;0.55;;;-1.30;99.90;;;;;;5035760;28;20036;-76
2022/01/16 03:54:24;;;;;;;0.40;0.40;;;-1.30;99.90;;;;;;5054194;28;20025;-76
2022/01/16 03:56:50;;;;;;;2.20;2.10;;;-1.20;99.90;;;;;;5053954;28;20461;-76
2022/01/16 03:59:17;;;;;;;0.50;0.50;;;-1.20;99.90;;;;;;5053753;28;20674;-76
2022/01/16 04:01:43;;;;;;;4.35;2.25;;;-1.30;99.90;;;;;;5053151;28;20021;-77
2022/01/16 04:04:09;;;;;;;0.50;0.50;;;-1.50;99.90;;;;;;5035871;28;20025;-76
2022/01/16 04:06:35;;;;;;;7.35;2.72;;;-1.50;99.90;;;;;;5053424;28;20103;-76
2022/01/16 04:09:02;;;;;;;1.00;1.00;;;-1.70;99.90;;;;;;5053223;28;20181;-76
2022/01/16 04:11:29;;;;;;;2.45;2.35;;;-1.80;99.90;;;;;;5035338;28;20465;-76
2022/01/16 04:14:23;;;;;;;4.65;4.22;;;-1.80;99.90;;;;;;5053790;28;20029;-77
2022/01/16 04:16:42;;;;;;;1.27;1.27;;;-1.80;99.90;;;;;;5052440;28;20033;-76
2022/01/16 04:19:08;;;;;;;0.73;0.73;;;-1.70;99.90;;;;;;5035245;28;20032;-76
2022/01/16 04:21:34;;;;;;;1.13;1.13;;;-1.80;99.90;;;;;;5053021;28;20020;-77
2022/01/16 04:23:59;;;;;;;1.75;0.98;;;-1.70;99.90;;;;;;5035287;28;20044;-76
2022/01/16 04:26:26;;;;;;;0.50;0.50;;;-1.60;99.90;;;;;;5053390;28;20370;-76
2022/01/16 04:28:55;;;;;;;1.05;1.05;;;-1.60;99.90;;;;;;5034984;28;20530;-76
2022/01/16 04:31:22;;;;;;;4.22;3.53;;;-1.60;99.90;;;;;;5052906;28;20056;-77
2022/01/16 04:33:47;;;;;;;2.13;2.03;;;-1.50;99.90;;;;;;5034898;28;20401;-77
2022/01/16 04:36:14;;;;;;;1.52;1.33;;;-1.60;99.90;;;;;;5053143;28;20029;-76
2022/01/16 04:38:45;;;;;;;4.45;2.97;;;-1.70;99.90;;;;;;5034989;28;20032;-76
2022/01/16 04:43:56;;;;;;;2.42;2.33;;;-2.00;99.90;;;;;;5052862;28;20031;-73
2022/01/16 04:46:28;;;;;;;4.47;2.38;;;-2.00;99.90;;;;;;5035682;28;20025;-73
2022/01/16 04:48:55;;;;;;;0.50;0.50;;;-1.80;99.90;;;;;;5053072;28;20036;-73
2022/01/16 04:51:22;;;;;;;0.50;0.50;;;-1.60;99.90;;;;;;5053239;28;20060;-73
2022/01/16 04:53:48;;;;;;;1.00;1.00;;;-1.50;99.90;;;;;;5035382;28;20112;-72
2022/01/16 04:56:14;;;;;;;0.80;0.80;;;-1.40;99.90;;;;;;5052716;28;20105;-73
2022/01/16 04:58:41;;;;;;;0.50;0.50;;;-1.30;99.90;;;;;;5034811;28;20059;-73
2022/01/16 05:01:08;;;;;;;0.50;0.50;;;-1.30;99.90;;;;;;5052606;28;20074;-73
2022/01/16 05:03:34;;;;;;;0.47;0.47;;;-1.10;99.90;;;;;;5053186;28;20406;-72
2022/01/16 05:06:01;;;;;;;1.13;1.05;;;-1.30;99.90;;;;;;5035361;28;20056;-73
2022/01/16 05:08:28;;;;;;;2.67;2.55;;;-1.30;99.90;;;;;;5053044;28;20044;-73
2022/01/16 05:10:55;;;;;;;0.60;0.60;;;-1.30;99.90;;;;;;5035091;28;20025;-73
2022/01/16 05:18:41;;;;;;;0.70;0.70;;;-1.60;99.90;;;;;;5034300;28;20028;-73
2022/01/16 05:21:08;;;;;;;1.13;0.90;;;-1.60;99.90;;;;;;5034347;28;20025;-73
2022/01/16 05:23:34;;;;;;;0.40;0.40;;;-1.50;99.90;;;;;;5052303;28;20032;-73
2022/01/16 05:26:01;;;;;;;0.93;0.93;;;-1.60;99.90;;;;;;5052053;28;20032;-73
2022/01/16 05:28:28;;;;;;;0.85;0.85;;;-1.80;99.90;;;;;;5052473;28;20393;-73
2022/01/16 05:30:54;;;;;;;0.50;0.50;;;-1.70;99.90;;;;;;5052069;28;20104;-73
2022/01/16 05:33:20;;;;;;;0.90;0.90;;;-1.80;99.90;;;;;;5034040;28;20044;-73
2022/01/16 05:35:46;;;;;;;2.45;2.25;;;-1.80;99.90;;;;;;5051949;28;20029;-73
2022/01/16 05:38:12;;;;;;;0.47;0.47;;;-1.80;99.90;;;;;;5064675;22;20504;-77
2022/01/16 05:40:39;;;;;;;0.85;0.85;;;-1.80;99.90;;;;;;5033361;28;20079;-77
2022/01/16 05:43:05;;;;;;;0.40;0.40;;;-1.60;99.90;;;;;;5033659;28;20388;-77
2022/01/16 05:45:31;;;;;;;0.40;0.40;;;-1.40;99.90;;;;;;5051692;28;20135;-76
2022/01/16 05:47:57;;;;;;;0.50;0.50;;;-1.20;99.90;;;;;;5051820;28;20056;-77
2022/01/16 05:50:24;;;;;;;2.58;2.38;;;-1.20;99.90;;;;;;5051885;28;20072;-77
2022/01/16 05:52:50;;;;;;;0.50;0.50;;;-1.00;99.90;;;;;;5033881;28;20052;-77
2022/01/16 05:55:17;;;;;;;0.50;0.50;;;-1.00;99.90;;;;;;5033725;28;20396;-77
2022/01/16 05:57:44;;;;;;;0.50;0.50;;;-1.00;99.90;;;;;;5051357;28;20043;-76
2022/01/16 06:00:11;;;;;;;1.23;1.23;;;-0.90;99.90;;;;;;5033991;28;20029;-77
2022/01/16 06:02:37;;;;;;;0.35;0.35;;;-0.90;99.90;;;;;;5033624;28;20029;-77
2022/01/16 06:05:04;;;;;;;0.50;0.50;;;-1.10;99.90;;;;;;5033693;28;20021;-76
2022/01/16 06:07:30;;;;;;;0.63;0.63;;;-1.20;99.90;;;;;;5051360;28;20029;-77
2022/01/16 06:09:56;;;;;;;0.30;0.30;;;-1.10;99.90;;;;;;5033690;28;20507;-76
2022/01/16 06:12:22;;;;;;;0.70;0.70;;;-1.10;99.90;;;;;;5033418;28;20029;-76
2022/01/16 06:14:48;;;;;;;0.73;0.73;;;-1.10;99.90;;;;;;5033678;28;20094;-77
2022/01/16 06:17:14;;;;;;;1.95;1.48;;;-1.00;99.90;;;;;;5051016;28;20033;-77
2022/01/16 06:19:40;;;;;;;0.50;0.50;;;-1.00;99.90;;;;;;5033586;28;20051;-76
2022/01/16 06:22:06;;;;;;;0.93;0.93;;;-1.00;99.90;;;;;;5033645;28;20272;-77
2022/01/16 06:24:32;;;;;;;1.70;1.60;;;-1.10;99.90;;;;;;5036497;28;20357;-77
2022/01/16 06:26:58;;;;;;;0.75;0.75;;;-1.10;99.90;;;;;;5020539;28;20025;-76
2022/01/16 06:29:24;;;;;;;0.40;0.40;;;-1.20;99.90;;;;;;5054988;28;20056;-77
2022/01/16 06:31:50;;;;;;;0.52;0.52;;;-1.30;99.90;;;;;;5037020;28;20021;-77
2022/01/16 06:34:15;;;;;;;0.52;0.52;;;-1.50;99.90;;;;;;5037112;28;20032;-77
2022/01/16 06:36:41;;;;;;;0.45;0.45;;;-1.70;99.90;;;;;;5036928;28;20102;-76
2022/01/16 06:39:10;;;;;;;0.50;0.50;;;-1.70;99.90;;;;;;5036883;28;20037;-77
2022/01/16 06:41:37;;;;;;;0.40;0.40;;;-1.80;99.90;;;;;;5020075;28;20102;-76
2022/01/16 06:44:03;;;;;;;0.47;0.47;;;-1.70;99.90;;;;;;5036813;28;20029;-76
2022/01/16 06:46:29;;;;;;;0.55;0.55;;;-1.50;99.90;;;;;;5054656;28;20028;-77
2022/01/16 06:48:55;;;;;;;0.60;0.60;;;-1.60;99.90;;;;;;5020303;28;20499;-77
2022/01/16 06:51:23;;;;;;;0.95;0.85;;;-1.50;99.90;;;;;;5054465;28;20033;-77
2022/01/16 06:53:50;;;;;;;3.92;3.72;;;-1.40;99.90;;;;;;5036820;28;20112;-77
2022/01/16 06:56:17;;;;;;;0.68;0.68;;;-1.50;99.90;;;;;;5020004;28;20340;-77
2022/01/16 06:58:43;;;;;;;0.50;0.50;;;-1.30;99.90;;;;;;5054516;28;20037;-76
2022/01/16 07:01:10;;;;;;;0.47;0.47;;;-1.30;99.90;;;;;;5054373;28;20104;-76
2022/01/16 07:03:37;;;;;;;3.42;1.95;;;-1.40;99.90;;;;;;5036705;28;20036;-76
2022/01/16 07:06:03;;;;;;;1.35;0.70;;;-1.20;99.90;;;;;;5036483;28;20392;-76
2022/01/16 07:08:30;;;;;;;0.88;0.88;;;-1.10;99.90;;;;;;5036422;28;20465;-77
2022/01/16 07:10:57;;;;;;;0.52;0.52;;;-1.00;99.90;;;;;;5054245;28;20465;-77
2022/01/16 07:13:24;;;;;;;0.65;0.65;;;-1.20;99.90;;;;;;5019635;28;20473;-76
2022/01/16 07:15:50;;;;;;;0.60;0.60;;;-1.40;99.90;;;;;;5053864;28;20059;-77
2022/01/16 07:18:17;;;;;;;2.10;1.75;;;-1.70;99.90;;;;;;5054011;28;20051;-76
2022/01/16 07:20:44;;;;;;;2.97;2.75;;;-1.70;99.90;;;;;;5019772;28;20025;-76
2022/01/16 07:23:11;;;;;;;0.50;0.50;;;-1.70;99.90;;;;;;5035982;28;20036;-76
2022/01/16 07:25:37;;;;;;;0.40;0.40;;;-1.70;99.90;;;;;;5036029;28;21026;-77
2022/01/16 07:28:03;;;;;;;1.40;1.40;;;-1.60;99.90;;;;;;5036013;28;20047;-77
2022/01/16 07:30:29;;;;;;;0.40;0.40;;;-1.50;99.90;;;;;;5036092;28;20104;-77
2022/01/16 07:32:55;;;;;;;2.72;1.30;;;-1.40;99.90;;;;;;5035880;28;20025;-77
2022/01/16 07:35:21;;;;;;;0.60;0.60;;;-1.30;99.90;;;;;;5018597;28;20530;-77
2022/01/16 07:37:47;;;;;;;1.35;1.35;;;-1.10;99.90;;;;;;5035572;28;20094;-77
2022/01/16 07:40:14;;;;;;;0.40;0.40;;;-1.00;99.90;;;;;;5053873;28;20044;-77
2022/01/16 07:42:40;;;;;;;5.15;4.78;;;-0.90;99.90;;;;;;5053750;28;20029;-76
2022/01/16 07:45:06;;;;;;;0.70;0.70;;;-1.10;99.90;;;;;;5053831;28;20029;-77
2022/01/16 07:47:32;;;;;;;0.73;0.73;;;-1.30;99.90;;;;;;5053434;28;20029;-76
2022/01/16 07:49:58;;;;;;;0.50;0.50;;;-1.20;99.90;;;;;;5053532;28;20519;-76
2022/01/16 07:52:24;;;;;;;0.50;0.50;;;-1.10;99.90;;;;;;5018895;28;20444;-76
2022/01/16 07:54:50;;;;;;;0.70;0.70;;;-0.90;99.90;;;;;;5053436;28;20098;-77
2022/01/16 07:57:16;;;;;;;0.40;0.40;;;-0.70;99.90;;;;;;5018790;28;20028;-76
2022/01/16 07:59:42;;;;;;;2.35;2.15;;;-0.60;99.90;;;;;;5053448;28;20040;-77
2022/01/16 08:02:08;;;;;;;0.38;0.38;;;-0.50;99.90;;;;;;5053259;28;20029;-76
2022/01/16 08:04:34;;;;;;;0.43;0.43;;;-0.60;99.90;;;;;;5035391;28;20024;-76
2022/01/16 08:07:00;;;;;;;0.73;0.73;;;-0.60;99.90;;;;;;5035028;28;20373;-76
2022/01/16 08:09:26;;;;;;;0.40;0.40;;;-0.50;99.90;;;;;;5034429;28;20100;-77
2022/01/16 08:11:52;;;;;;;0.55;0.55;;;-0.20;99.90;;;;;;5048770;28;20076;-76
2022/01/16 08:14:18;;;;;;;1.05;0.88;;;0.00;99.90;;;;;;5049708;28;20114;-77
2022/01/16 08:16:43;;;;;;;0.60;0.60;;;0.20;99.90;;;;;;5035219;28;20111;-77
2022/01/16 08:19:09;;;;;;;0.50;0.50;;;0.10;99.90;;;;;;5070661;28;20494;-77
2022/01/16 08:21:35;;;;;;;1.00;1.00;;;0.10;99.90;;;;;;5072521;28;20027;-77
2022/01/16 08:24:03;;;;;;;14.05;5.05;;;0.00;99.90;;;;;;5063817;28;20025;-78
2022/01/16 08:26:31;;;;;;;0.40;0.40;;;0.00;99.90;;;;;;5057819;28;20014;-76
2022/01/16 08:28:57;;;;;;;0.70;0.70;;;-0.20;99.90;;;;;;5034773;28;20451;-77
2022/01/16 08:31:23;;;;;;;1.50;1.45;;;-0.20;99.90;;;;;;5034713;28;20029;-77
2022/01/16 08:33:50;;;;;;;0.30;0.30;;;-0.10;99.90;;;;;;5061801;28;20084;-77
2022/01/16 08:36:15;;;;;;;0.65;0.65;;;-0.10;99.90;;;;;;5037115;28;20543;-77
2022/01/16 08:38:41;;;;;;;1.10;1.05;;;0.00;99.90;;;;;;5054312;28;20067;-77
2022/01/16 08:41:07;;;;;;;2.38;2.05;;;0.00;99.90;;;;;;5072240;28;20032;-77
2022/01/16 08:43:33;;;;;;;0.98;0.98;;;0.10;99.90;;;;;;5064561;28;20036;-77
2022/01/16 08:45:59;;;;;;;0.40;0.40;;;0.20;99.90;;;;;;5052287;28;20040;-77
2022/01/16 08:48:26;;;;;;;0.43;0.43;;;0.20;99.90;;;;;;5034564;28;20035;-77
2022/01/16 08:50:52;;;;;;;0.30;0.30;;;0.30;99.90;;;;;;5051971;28;20048;-77
2022/01/16 08:53:17;;;;;;;0.70;0.70;;;0.40;99.90;;;;;;5052067;28;20032;-77
2022/01/16 08:55:43;;;;;;;0.43;0.43;;;0.50;99.90;;;;;;5034277;28;20028;-79
2022/01/16 08:58:13;;;;;;;0.38;0.38;;;0.70;99.90;;;;;;5018191;28;20073;-77
2022/01/16 09:00:40;;;;;;;0.60;0.60;;;0.80;99.90;;;;;;5034237;28;20316;-77
2022/01/16 09:03:06;;;;;;;0.30;0.30;;;1.00;99.90;;;;;;5039332;28;20020;-77
2022/01/16 09:05:32;;;;;;;0.30;0.30;;;1.10;99.90;;;;;;5039193;28;20040;-79
2022/01/16 09:07:58;;;;;;;0.50;0.50;;;1.40;99.90;;;;;;5050993;28;20400;-77
2022/01/16 09:10:25;;;;;;;0.73;0.73;;;1.60;99.90;;;;;;5070115;28;20021;-76
2022/01/16 09:12:51;;;;;;;0.30;0.30;;;1.70;99.90;;;;;;5051960;28;20017;-77
2022/01/16 09:15:16;;;;;;;1.45;0.45;;;1.80;99.90;;;;;;5051802;28;20029;-77
2022/01/16 09:17:42;;;;;;;0.55;0.55;;;1.90;99.90;;;;;;5033678;28;20020;-77
2022/01/16 09:20:09;;;;;;;1.35;1.30;;;2.10;99.90;;;;;;5063668;28;20107;-77
2022/01/16 09:22:36;;;;;;;0.65;0.65;;;2.20;99.90;;;;;;5071920;28;20029;-76
2022/01/16 09:25:04;;;;;;;0.30;0.30;;;2.40;99.90;;;;;;5052320;28;20024;-77
2022/01/16 09:27:31;;;;;;;0.30;0.30;;;2.60;99.90;;;;;;5066645;28;20107;-78
2022/01/16 09:29:57;;;;;;;0.68;0.57;;;2.70;99.90;;;;;;5064976;28;20495;-77
2022/01/16 09:32:23;;;;;;;0.70;0.50;;;2.70;99.90;;;;;;5017403;28;20053;-77
2022/01/16 09:34:49;;;;;;;0.40;0.40;;;2.70;99.90;;;;;;5045249;28;20016;-77
2022/01/16 09:37:14;;;;;;;0.30;0.30;;;2.90;99.90;;;;;;5041140;28;20028;-77
2022/01/16 09:39:40;;;;;;;0.40;0.40;;;3.00;99.90;;;;;;5051721;28;20028;-76
2022/01/16 09:42:07;;;;;;;0.82;0.82;;;3.10;99.90;;;;;;5051278;28;20025;-77
2022/01/16 09:44:38;;;;;;;0.60;0.40;;;3.60;99.90;;;;;;5034354;28;20484;-77
2022/01/16 09:47:04;;;;;;;0.52;0.52;;;4.00;99.90;;;;;;5017651;28;20029;-77
2022/01/16 09:49:30;;;;;;;0.35;0.35;;;4.30;99.90;;;;;;5017168;28;20057;-77
2022/01/16 09:51:56;;;;;;;0.30;0.30;;;4.50;99.90;;;;;;5033892;28;20505;-77
2022/01/16 09:54:22;;;;;;;1.33;0.93;;;5.00;98.90;;;;;;5051591;28;20460;-77
2022/01/16 09:56:49;;;;;;;1.25;1.15;;;5.30;95.00;;;;;;5051545;28;20021;-76
2022/01/16 09:59:15;;;;;;;0.50;0.50;;;5.60;93.80;;;;;;5036561;28;20503;-77
2022/01/16 10:01:40;;;;;;;0.30;0.30;;;5.80;92.50;;;;;;5037707;28;20055;-77
2022/01/16 10:04:33;;;;;;;0.30;0.30;;;6.30;91.80;;;;;;5055397;28;20020;-77
2022/01/16 10:07:04;;;;;;;0.60;0.60;;;6.70;89.40;;;;;;5037380;28;20028;-76
2022/01/16 10:09:30;;;;;;;2.60;1.42;;;7.00;84.70;;;;;;5055238;28;20096;-77
2022/01/16 10:11:59;;;;;;;0.20;0.20;;;7.40;84.50;;;;;;5055237;28;20075;-76
2022/01/16 10:14:29;;;;;;;0.30;0.30;;;8.00;79.10;;;;;;5055209;28;20094;-77
2022/01/16 10:16:55;;;;;;;0.55;0.55;;;8.60;76.60;;;;;;5037284;28;20017;-77
2022/01/16 10:19:29;;;;;;;0.10;0.10;;;9.30;73.50;;;;;;5037331;28;20032;-77
2022/01/16 10:22:02;;;;;;;0.20;0.20;;;10.10;69.90;;;;;;5055119;28;20082;-77
2022/01/16 10:24:30;;;;;;;0.63;0.63;;;10.90;65.10;;;;;;5054957;28;20029;-77
2022/01/16 10:27:08;;;;;;;3.30;1.60;;;11.00;62.00;;;;;;5037005;28;20388;-77
2022/01/16 10:29:43;;;;;;;0.25;0.25;;;10.90;62.60;;;;;;5055258;28;20107;-77
2022/01/16 10:32:10;;;;;;;0.10;0.10;;;11.60;60.10;;;;;;5037086;28;20072;-77
2022/01/16 10:34:36;;;;;;;0.25;0.25;;;12.20;57.40;;;;;;5037057;28;20017;-77
2022/01/16 10:37:18;;;;;;;1.02;0.30;;;12.30;55.90;;;;;;5036903;28;20481;-77
2022/01/16 10:39:51;;;;;;;;;;;12.10;55.60;;;;;;5037381;28;20028;-77
2022/01/16 10:42:17;;;;;;;0.40;0.40;;;12.60;55.00;;;;;;5036861;28;19905;-77
2022/01/16 10:44:43;;;;;;;0.10;0.10;;;12.60;54.00;;;;;;5037128;28;20082;-78
2022/01/16 10:47:30;;;;;;;0.52;0.50;;;13.10;54.40;;;;;;5054432;28;20032;-77
2022/01/16 10:50:10;;;;;;;0.45;0.45;;;13.60;52.90;;;;;;5020114;28;20480;-77
2022/01/16 10:53:24;;;;;;;11.13;1.48;;;13.30;52.60;;;;;;5023776;28;20154;-77
2022/01/16 10:55:52;;;;;;;1.77;1.00;;;13.30;51.60;;;;;;5046928;28;20044;-77
2022/01/16 10:58:25;;;;;;;8.57;0.47;;;13.30;51.90;;;;;;5041185;28;20135;-79
2022/01/16 11:01:00;;;;;;;0.40;0.40;;;13.50;51.60;;;;;;5037888;28;20394;-77
2022/01/16 11:03:28;;;;;;;2.25;0.98;;;12.60;50.70;;;;;;5037588;28;20037;-75
2022/01/16 11:05:55;;;;;;;2.13;0.73;;;12.80;50.90;;;;;;5036776;28;20396;-77
2022/01/16 11:08:25;;;;;;;0.82;0.82;;;12.90;51.30;;;;;;5035975;28;20025;-77
2022/01/16 11:10:56;;;;;;;0.47;0.47;;;13.40;50.50;;;;;;5035335;28;20044;-77
2022/01/16 11:13:32;;;;;;;1.75;1.30;;;13.40;50.60;;;;;;5054188;28;20025;-77
2022/01/16 11:16:03;;;;;;;2.17;0.52;;;13.90;49.50;;;;;;5019803;28;20025;-77
2022/01/16 11:18:31;;;;;;;0.40;0.40;;;13.60;49.20;;;;;;5054224;28;20021;-77
2022/01/16 11:21:14;;;;;;;0.65;0.43;;;13.90;50.30;;;;;;5036331;28;20052;-77
2022/01/16 11:26:18;;;;;;;0.30;0.30;;;13.40;49.30;;;;;;5036188;28;20029;-78
2022/01/16 11:28:44;;;;;;;2.90;0.65;;;12.70;51.80;;;;;;5019531;28;20028;-77
2022/01/16 11:31:14;;;;;;;1.33;1.27;;;12.90;51.20;;;;;;5036173;28;20032;-77
2022/01/16 11:33:42;;;;;;;2.85;2.35;;;13.50;51.00;;;;;;5053757;28;20016;-77
2022/01/16 11:36:34;;;;;;;0.20;0.20;;;12.90;50.20;;;;;;5035886;28;20025;-77
2022/01/16 11:39:02;;;;;;;0.20;0.20;;;12.70;51.00;;;;;;5048649;28;20049;-77
2022/01/16 11:41:35;;;;;;;2.10;1.63;;;13.80;51.10;;;;;;5035666;28;20037;-78
2022/01/16 11:44:02;;;;;;;1.45;0.70;;;14.10;48.90;;;;;;5035755;28;20044;-77
2022/01/16 11:46:30;;;;;;;0.65;0.63;;;14.40;48.90;;;;;;5035664;28;20037;-77
2022/01/16 11:48:58;;;;;;;1.90;1.40;;;14.00;49.60;;;;;;5035785;28;20047;-77
2022/01/16 11:51:36;;;;;;;0.90;0.90;;;13.40;50.00;;;;;;5053421;28;20079;-77
2022/01/16 11:54:13;;;;;;;0.10;0.10;;;14.00;50.60;;;;;;5019182;28;20087;-78
2022/01/16 11:56:39;;;;;;;0.35;0.35;;;14.20;49.70;;;;;;5053306;28;20020;-77
2022/01/16 11:59:33;;;;;;;0.65;0.65;;;14.30;49.60;;;;;;5035556;28;20044;-77
2022/01/16 12:02:08;;;;;;;1.58;1.23;;;14.30;49.20;;;;;;5026205;28;20626;-76
2022/01/16 12:04:34;;;;;;;4.20;3.85;;;12.70;51.20;;;;;;5053298;28;20392;-77
2022/01/16 12:07:12;;;;;;;1.23;1.10;;;12.70;52.90;;;;;;5034827;28;20021;-77
2022/01/16 12:12:15;;;;;;;1.45;1.45;;;11.40;55.40;;;;;;5053164;28;20388;-77
2022/01/16 12:14:53;;;;;;;3.45;1.17;;;11.40;56.90;;;;;;5035252;28;20021;-77
2022/01/16 12:17:29;;;;;;;3.10;1.23;;;11.90;56.40;;;;;;5035403;28;20117;-77
2022/01/16 12:20:20;;;;;;;0.20;0.20;;;11.50;55.80;;;;;;5035180;28;20448;-77
2022/01/16 12:22:46;;;;;;;0.28;0.28;;;11.50;56.40;;;;;;5006498;28;20028;-78
2022/01/16 12:25:40;;;;;;;0.50;0.50;;;11.60;56.60;;;;;;5035095;28;20025;-76
2022/01/16 12:28:08;;;;;;;1.75;0.68;;;11.00;57.40;;;;;;5018525;28;20083;-77
2022/01/16 12:30:55;;;;;;;1.80;1.48;;;11.10;58.10;;;;;;5052856;28;20435;-77
2022/01/16 12:33:40;;;;;;;0.93;0.63;;;11.00;57.40;;;;;;5035386;28;20100;-77
2022/01/16 12:36:19;;;;;;;4.03;3.63;;;11.10;57.60;;;;;;5034700;28;20048;-77
2022/01/16 12:39:04;;;;;;;1.58;1.25;;;11.00;57.20;;;;;;5052615;28;20025;-77
2022/01/16 12:41:42;;;;;;;3.38;1.77;;;9.90;59.00;;;;;;5052480;28;20473;-77
2022/01/16 12:44:11;;;;;;;3.10;2.00;;;8.70;61.90;;;;;;5052531;28;20036;-77
2022/01/16 12:46:51;;;;;;;0.30;0.30;;;8.00;64.90;;;;;;5034613;28;20112;-77
2022/01/16 12:49:26;;;;;;;1.63;1.52;;;7.80;67.20;;;;;;5052461;28;20028;-77
2022/01/16 12:51:55;;;;;;;1.35;0.75;;;7.70;67.40;;;;;;5052372;28;20477;-77
2022/01/16 12:54:26;;;;;;;0.20;0.20;;;7.40;68.60;;;;;;5052483;28;20024;-77
2022/01/16 12:56:54;;;;;;;0.20;0.20;;;7.30;70.10;;;;;;5052087;28;20102;-76
2022/01/16 12:59:23;;;;;;;0.30;0.30;;;7.20;69.70;;;;;;5034440;28;20531;-77
2022/01/16 13:02:01;;;;;;;1.42;0.77;;;7.10;70.20;;;;;;5052348;28;20340;-77
2022/01/16 13:04:37;;;;;;;3.35;1.08;;;7.10;71.10;;;;;;5052250;28;20059;-77
2022/01/16 13:07:09;;;;;;;10.43;2.60;;;7.10;71.10;;;;;;5033871;28;20029;-77
2022/01/16 13:09:35;;;;;;;1.05;1.05;;;7.70;70.40;;;;;;5017978;28;20091;-77
2022/01/16 13:12:02;;;;;;;0.25;0.25;;;9.00;67.40;;;;;;5034368;28;20104;-77
2022/01/16 13:14:36;;;;;;;6.85;2.53;;;9.80;63.60;;;;;;5018091;28;20032;-77
2022/01/16 13:17:09;;;;;;;11.90;2.00;;;10.00;61.60;;;;;;5034053;28;20431;-77
2022/01/16 13:22:16;;;;;;;5.38;0.90;;;10.50;61.40;;;;;;5051930;28;20028;-77
2022/01/16 13:24:49;;;;;;;3.55;1.55;;;9.90;61.40;;;;;;5034128;28;20430;-77
2022/01/16 13:27:23;;;;;;;0.20;0.20;;;9.60;62.40;;;;;;5034030;28;20029;-76
2022/01/16 13:29:55;;;;;;;4.00;2.17;;;8.80;65.40;;;;;;5017899;28;20017;-76
2022/01/16 13:32:28;;;;;;;5.75;1.80;;;8.60;66.10;;;;;;5051431;28;20021;-77
2022/01/16 13:34:55;;;;;;;0.20;0.20;;;8.90;65.50;;;;;;5017308;28;20033;-77
2022/01/16 13:37:32;;;;;;;1.15;0.75;;;9.40;65.10;;;;;;5033786;28;20098;-77
2022/01/16 13:40:02;;;;;;;0.15;0.15;;;9.70;63.10;;;;;;5051877;28;20029;-77
2022/01/16 13:43:02;;;;;;;6.10;1.13;;;9.60;63.40;;;;;;5033988;28;20472;-77
2022/01/16 13:45:44;;;;;;;0.30;0.30;;;9.10;64.80;;;;;;5033979;28;20048;-77
2022/01/16 13:48:16;;;;;;;0.10;0.10;;;8.70;67.00;;;;;;5033804;28;20025;-77
2022/01/16 13:50:51;;;;;;;0.10;0.10;;;8.60;67.50;;;;;;5033888;28;20049;-77
2022/01/16 13:53:33;;;;;;;9.63;1.02;;;8.90;67.10;;;;;;5051543;28;20021;-77